createdAt,value
2019-02-05T00:00:51.876Z,69.89
2019-02-05T00:03:22.652Z,69.86
2019-02-05T00:05:51.876Z,69.85
2019-02-05T00:08:21.098Z,70.72
2019-02-05T00:10:50.227Z,70.25
2019-02-05T00:13:19.309Z,70.08
2019-02-05T00:15:48.425Z,70.02
2019-02-05T00:18:17.516Z,69.51
2019-02-05T00:20:47.069Z,70.71
2019-02-05T00:23:16.165Z,70.19
2019-02-05T00:25:45.276Z,70.45
2019-02-05T00:28:14.372Z,70.83
2019-02-05T00:30:43.476Z,69.84
2019-02-05T00:33:12.662Z,70.40
2019-02-05T00:35:41.770Z,69.95
2019-02-05T00:38:10.861Z,70.32
2019-02-05T00:40:39.971Z,71.02
2019-02-05T00:43:09.055Z,71.70
2019-02-05T00:45:39.040Z,70.81
2019-02-05T00:48:08.124Z,71.10
2019-02-05T00:50:37.240Z,71.10
2019-02-05T00:53:06.350Z,71.24
2019-02-05T00:55:35.453Z,71.47
2019-02-05T00:58:04.849Z,71.27
2019-02-05T01:00:34.490Z,71.69
2019-02-05T01:03:04.693Z,71.34
2019-02-05T01:05:33.868Z,71.44
2019-02-05T01:08:02.977Z,71.37
2019-02-05T01:10:32.072Z,72.01
2019-02-05T01:13:01.189Z,72.69
2019-02-05T01:15:30.276Z,72.64
2019-02-05T01:17:59.389Z,72.75
2019-02-05T01:20:28.658Z,72.99
2019-02-05T01:22:57.766Z,73.81
2019-02-05T01:25:26.863Z,73.69
2019-02-05T01:27:55.967Z,74.03
2019-02-05T01:30:26.497Z,74.90
2019-02-05T01:32:55.806Z,75.24
2019-02-05T01:35:24.894Z,75.27
2019-02-05T01:37:53.993Z,75.11
2019-02-05T01:40:24.526Z,75.09
2019-02-05T01:42:53.827Z,74.56
2019-02-05T01:45:23.394Z,74.52
2019-02-05T01:47:52.711Z,75.13
2019-02-05T01:50:26.135Z,75.24
2019-02-05T01:52:55.265Z,75.05
2019-02-05T01:55:24.626Z,75.22
2019-02-05T01:57:54.039Z,75.61
2019-02-05T02:00:31.204Z,76.07
2019-02-05T02:03:00.297Z,76.27
2019-02-05T02:05:29.891Z,75.96
2019-02-05T02:07:59.381Z,76.00
2019-02-05T02:10:29.502Z,76.17
2019-02-05T02:12:58.833Z,76.10
2019-02-05T02:15:28.024Z,76.69
2019-02-05T02:17:57.309Z,76.88
2019-02-05T02:20:26.424Z,76.52
2019-02-05T02:22:55.997Z,76.40
2019-02-05T02:25:25.102Z,76.91
2019-02-05T02:27:54.200Z,76.76
2019-02-05T02:30:28.818Z,76.62
2019-02-05T02:32:57.905Z,76.15
2019-02-05T02:35:27.011Z,76.25
2019-02-05T02:37:56.384Z,76.17
2019-02-05T02:40:25.492Z,75.76
2019-02-05T02:42:54.588Z,75.67
2019-02-05T02:45:23.703Z,75.94
2019-02-05T02:47:52.794Z,75.48
2019-02-05T02:50:21.931Z,75.80
2019-02-05T02:52:52.124Z,75.74
2019-02-05T02:55:21.230Z,76.01
2019-02-05T02:57:50.325Z,75.73
2019-02-05T03:00:20.411Z,75.75
2019-02-05T03:02:49.818Z,75.47
2019-02-05T03:05:21.053Z,75.37
2019-02-05T03:07:50.427Z,75.08
2019-02-05T03:10:21.793Z,75.30
2019-02-05T03:12:51.081Z,76.31
2019-02-05T03:15:20.198Z,75.88
2019-02-05T03:17:49.870Z,75.36
2019-02-05T03:20:19.265Z,74.89
2019-02-05T03:22:48.472Z,75.34
2019-02-05T03:25:19.659Z,74.89
2019-02-05T03:27:48.858Z,74.61
2019-02-05T03:30:19.512Z,74.43
2019-02-05T03:32:48.715Z,74.99
2019-02-05T03:35:18.469Z,74.53
2019-02-05T03:37:47.552Z,74.04
2019-02-05T03:41:07.866Z,73.91
2019-02-05T03:43:37.849Z,73.94
2019-02-05T03:46:12.185Z,73.68
2019-02-05T03:48:42.836Z,73.68
2019-02-05T03:51:58.258Z,73.05
2019-02-05T03:55:20.117Z,72.90
2019-02-05T03:58:33.489Z,72.57
2019-02-05T04:01:55.274Z,72.53
2019-02-05T04:04:56.096Z,72.40
2019-02-05T04:07:55.593Z,72.19
2019-02-05T04:10:52.402Z,72.90
2019-02-05T04:14:03.390Z,72.31
2019-02-05T04:17:16.280Z,72.08
2019-02-05T04:20:17.823Z,72.67
2019-02-05T04:23:23.375Z,73.24
2019-02-05T04:26:21.503Z,72.81
2019-02-05T04:29:43.647Z,75.00
2019-02-05T04:32:37.903Z,74.72
2019-02-05T04:35:29.815Z,75.60
2019-02-05T04:38:39.264Z,77.74
2019-02-05T04:42:04.043Z,76.52
2019-02-05T04:45:10.461Z,77.67
2019-02-05T04:48:34.518Z,78.43
2019-02-05T04:51:45.958Z,77.30
2019-02-05T04:54:58.183Z,78.93
2019-02-05T04:58:06.825Z,78.92
2019-02-05T05:01:19.804Z,79.91
2019-02-05T05:04:28.482Z,77.71
2019-02-05T05:07:28.659Z,77.33
2019-02-05T05:09:59.089Z,77.09
2019-02-05T05:12:29.398Z,76.37
2019-02-05T05:14:58.861Z,76.41
2019-02-05T05:17:27.946Z,74.11
2019-02-05T05:19:57.165Z,74.42
2019-02-05T05:22:26.551Z,75.91
2019-02-05T05:24:55.762Z,76.13
2019-02-05T05:27:26.063Z,73.58
2019-02-05T05:29:55.165Z,73.86
2019-02-05T05:32:24.345Z,74.55
2019-02-05T05:34:53.533Z,72.85
2019-02-05T05:37:23.022Z,73.27
2019-02-05T05:39:52.157Z,74.09
2019-02-05T05:42:21.288Z,75.53
2019-02-05T05:44:50.403Z,73.32
2019-02-05T05:47:19.491Z,73.36
2019-02-05T05:49:48.605Z,73.55
2019-02-05T05:52:17.726Z,73.58
2019-02-05T05:54:46.841Z,73.38
2019-02-05T05:57:18.711Z,73.74
2019-02-05T05:59:46.765Z,73.88
2019-02-05T06:02:16.627Z,74.31
2019-02-05T06:04:45.732Z,73.87
2019-02-05T06:07:14.826Z,73.81
2019-02-05T06:09:44.294Z,73.85
2019-02-05T06:12:13.384Z,73.87
2019-02-05T06:14:42.543Z,74.45
2019-02-05T06:17:11.622Z,74.54
2019-02-05T06:19:40.734Z,74.33
2019-02-05T06:22:09.812Z,74.59
2019-02-05T06:24:38.936Z,75.55
2019-02-05T06:27:08.026Z,74.38
2019-02-05T06:29:37.137Z,74.07
2019-02-05T06:32:06.494Z,74.36
2019-02-05T06:34:35.614Z,74.49
2019-02-05T06:37:04.705Z,74.53
2019-02-05T06:39:33.819Z,73.92
2019-02-05T06:42:02.917Z,74.31
2019-02-05T06:44:32.012Z,75.33
2019-02-05T06:47:01.107Z,75.27
2019-02-05T06:49:30.237Z,75.35
2019-02-05T06:51:59.345Z,75.51
2019-02-05T06:54:28.455Z,75.22
2019-02-05T06:56:57.546Z,74.92
2019-02-05T06:59:26.629Z,75.09
2019-02-05T07:01:55.738Z,75.33
2019-02-05T07:04:25.121Z,75.64
2019-02-05T07:06:54.215Z,76.17
2019-02-05T07:09:23.293Z,75.36
2019-02-05T07:11:52.393Z,74.48
2019-02-05T07:14:21.490Z,74.90
2019-02-05T07:16:50.594Z,74.59
2019-02-05T07:19:19.679Z,74.23
2019-02-05T07:21:48.786Z,73.25
2019-02-05T07:24:17.865Z,73.07
2019-02-05T07:26:47.167Z,72.79
2019-02-05T07:29:16.257Z,73.58
2019-02-05T07:31:45.368Z,73.34
2019-02-05T07:34:14.453Z,73.44
2019-02-05T07:36:43.562Z,73.07
2019-02-05T07:39:12.658Z,72.54
2019-02-05T07:41:41.767Z,71.79
2019-02-05T07:44:10.850Z,71.36
2019-02-05T07:46:39.937Z,71.20
2019-02-05T07:49:09.042Z,70.98
2019-02-05T07:51:38.127Z,70.22
2019-02-05T07:54:07.248Z,69.28
2019-02-05T07:56:36.511Z,68.50
2019-02-05T07:59:10.160Z,68.52
2019-02-05T08:01:36.523Z,68.00
2019-02-05T08:04:05.842Z,66.76
2019-02-05T08:06:34.933Z,65.68
2019-02-05T08:09:05.588Z,64.46
2019-02-05T08:11:34.690Z,66.18
2019-02-05T08:14:06.071Z,66.33
2019-02-05T08:16:34.807Z,66.62
2019-02-05T08:19:04.209Z,66.76
2019-02-05T08:21:33.299Z,66.87
2019-02-05T08:24:02.405Z,66.67
2019-02-05T08:26:31.497Z,66.85
2019-02-05T08:29:00.602Z,67.29
2019-02-05T08:31:29.963Z,66.71
2019-02-05T08:33:59.083Z,66.86
2019-02-05T08:36:28.174Z,66.78
2019-02-05T08:38:57.282Z,66.69
2019-02-05T08:41:26.375Z,66.51
2019-02-05T08:43:55.485Z,66.37
2019-02-05T08:46:24.577Z,66.16
2019-02-05T08:48:53.969Z,65.87
2019-02-05T08:51:23.061Z,65.31
2019-02-05T08:53:52.192Z,65.21
2019-02-05T08:56:21.277Z,65.10
2019-02-05T08:58:50.383Z,66.67
2019-02-05T09:01:19.477Z,66.53
2019-02-05T09:03:48.577Z,66.51
2019-02-05T09:06:17.842Z,66.01
2019-02-05T09:08:46.951Z,64.17
2019-02-05T09:11:16.035Z,64.14
2019-02-05T09:13:45.153Z,64.82
2019-02-05T09:16:14.237Z,63.27
2019-02-05T09:18:43.330Z,63.77
2019-02-05T09:21:12.443Z,63.81
2019-02-05T09:23:41.530Z,64.30
2019-02-05T09:26:10.633Z,64.38
2019-02-05T09:28:39.726Z,63.44
2019-02-05T09:31:08.828Z,63.82
2019-02-05T09:33:37.919Z,63.84
2019-02-05T09:36:07.024Z,63.92
2019-02-05T09:38:36.386Z,62.83
2019-02-05T09:41:05.698Z,63.00
2019-02-05T09:43:34.786Z,63.78
2019-02-05T09:46:03.903Z,65.38
2019-02-05T09:48:32.994Z,65.88
2019-02-05T09:51:02.099Z,65.48
2019-02-05T09:53:31.214Z,65.51
2019-02-05T09:56:00.609Z,65.50
2019-02-05T09:58:29.690Z,64.98
2019-02-05T10:00:59.749Z,65.27
2019-02-05T10:03:28.950Z,64.91
2019-02-05T10:05:58.055Z,63.36
2019-02-05T10:08:27.153Z,62.72
2019-02-05T10:10:56.263Z,63.27
2019-02-05T10:13:25.522Z,61.90
2019-02-05T10:15:54.633Z,62.15
2019-02-05T10:18:23.722Z,61.62
2019-02-05T10:20:54.130Z,61.25
2019-02-05T10:23:23.247Z,60.67
2019-02-05T10:25:52.358Z,61.37
2019-02-05T10:28:21.446Z,59.49
2019-02-05T10:30:50.551Z,58.86
2019-02-05T10:33:19.644Z,58.69
2019-02-05T10:35:48.757Z,58.64
2019-02-05T10:38:17.842Z,60.25
2019-02-05T10:40:46.955Z,60.55
2019-02-05T10:43:16.037Z,61.90
2019-02-05T10:45:45.421Z,59.74
2019-02-05T10:48:14.607Z,58.70
2019-02-05T10:50:43.697Z,59.21
2019-02-05T10:53:12.826Z,61.96
2019-02-05T10:55:41.953Z,62.43
2019-02-05T10:58:12.783Z,63.16
2019-02-05T11:00:41.868Z,61.11
2019-02-05T11:03:10.980Z,62.01
2019-02-05T11:05:40.068Z,60.38
2019-02-05T11:08:09.276Z,60.74
2019-02-05T11:10:38.390Z,59.30
2019-02-05T11:13:07.946Z,61.23
2019-02-05T11:15:37.024Z,60.66
2019-02-05T11:18:09.388Z,59.57
2019-02-05T11:20:38.491Z,59.07
2019-02-05T11:23:07.783Z,57.01
2019-02-05T11:25:37.026Z,56.62
2019-02-05T11:28:06.135Z,59.51
2019-02-05T11:30:37.354Z,59.42
2019-02-05T11:33:06.566Z,59.90
2019-02-05T11:35:35.646Z,59.60
2019-02-05T11:38:05.404Z,58.83
2019-02-05T11:40:35.086Z,59.89
2019-02-05T11:43:04.287Z,58.01
2019-02-05T11:45:33.483Z,56.85
2019-02-05T11:48:03.316Z,57.78
2019-02-05T11:50:32.683Z,57.66
2019-02-05T11:53:01.821Z,56.34
2019-02-05T11:55:31.895Z,55.71
2019-02-05T11:58:00.998Z,55.88
2019-02-05T12:00:33.193Z,55.34
2019-02-05T12:03:02.490Z,56.03
2019-02-05T12:05:31.582Z,53.95
2019-02-05T12:08:00.968Z,57.54
2019-02-05T12:10:30.048Z,56.96
2019-02-05T12:12:59.149Z,56.75
2019-02-05T12:15:28.229Z,56.97
2019-02-05T12:17:57.339Z,55.07
2019-02-05T12:20:26.429Z,56.95
2019-02-05T12:22:55.539Z,58.11
2019-02-05T12:25:24.825Z,57.17
2019-02-05T12:27:53.934Z,62.57
2019-02-05T12:30:25.603Z,63.22
2019-02-05T12:32:54.702Z,62.96
2019-02-05T12:35:23.798Z,62.84
2019-02-05T12:37:52.902Z,62.71
2019-02-05T12:40:22.368Z,62.05
2019-02-05T12:42:51.461Z,61.13
2019-02-05T12:45:22.704Z,59.46
2019-02-05T12:47:51.794Z,60.09
2019-02-05T12:50:23.025Z,58.98
2019-02-05T12:52:52.185Z,60.25
2019-02-05T12:55:21.850Z,61.73
2019-02-05T12:57:50.958Z,60.82
2019-02-05T13:00:31.740Z,60.58
2019-02-05T13:03:00.951Z,59.92
2019-02-05T13:05:30.157Z,57.11
2019-02-05T13:07:59.515Z,53.33
2019-02-05T13:10:31.067Z,52.83
2019-02-05T13:13:00.411Z,52.82
2019-02-05T13:15:29.617Z,53.47
2019-02-05T13:17:58.807Z,53.35
2019-02-05T13:20:29.008Z,53.52
2019-02-05T13:22:58.385Z,49.78
2019-02-05T13:25:28.595Z,49.55
2019-02-05T13:27:57.677Z,51.28
2019-02-05T13:30:28.678Z,49.92
2019-02-05T13:32:57.768Z,44.67
2019-02-05T13:35:27.317Z,46.83
2019-02-05T13:37:56.433Z,46.04
2019-02-05T13:40:26.454Z,49.91
2019-02-05T13:42:55.674Z,46.50
2019-02-05T13:45:27.159Z,48.67
2019-02-05T13:47:56.357Z,50.12
2019-02-05T13:50:33.094Z,50.49
2019-02-05T13:52:58.134Z,55.15
2019-02-05T13:55:38.732Z,57.45
2019-02-05T13:58:07.948Z,56.77
2019-02-05T14:00:39.585Z,59.55
2019-02-05T14:03:09.790Z,62.03
2019-02-05T14:05:39.150Z,60.95
2019-02-05T14:08:08.236Z,60.39
2019-02-05T14:10:37.687Z,61.73
2019-02-05T14:13:07.066Z,62.26
2019-02-05T14:15:37.604Z,61.02
2019-02-05T14:18:07.585Z,61.04
2019-02-05T14:20:36.704Z,61.90
2019-02-05T14:23:05.916Z,61.57
2019-02-05T14:25:35.078Z,63.56
2019-02-05T14:28:04.364Z,64.24
2019-02-05T14:30:36.274Z,66.10
2019-02-05T14:33:05.842Z,66.22
2019-02-05T14:35:35.049Z,65.57
2019-02-05T14:38:04.742Z,67.52
2019-02-05T14:40:33.846Z,68.84
2019-02-05T14:43:02.940Z,69.16
2019-02-05T14:45:33.312Z,68.90
2019-02-05T14:48:02.669Z,68.28
2019-02-05T14:50:32.460Z,69.42
2019-02-05T14:53:02.103Z,70.18
2019-02-05T14:55:31.478Z,70.32
2019-02-05T14:58:00.562Z,70.28
2019-02-05T15:00:31.436Z,70.92
2019-02-05T15:03:02.079Z,71.07
2019-02-05T15:05:31.479Z,70.68
2019-02-05T15:08:00.582Z,70.51
2019-02-05T15:10:29.672Z,70.63
2019-02-05T15:12:58.797Z,71.67
2019-02-05T15:15:28.189Z,71.20
2019-02-05T15:17:57.412Z,72.16
2019-02-05T15:20:29.071Z,72.13
2019-02-05T15:22:58.270Z,73.14
2019-02-05T15:25:27.353Z,73.30
2019-02-05T15:27:56.457Z,73.55
2019-02-05T15:30:31.226Z,74.09
2019-02-05T15:33:23.050Z,74.22
2019-02-05T15:36:00.457Z,74.00
2019-02-05T15:38:29.940Z,73.74
2019-02-05T15:40:59.482Z,73.89
2019-02-05T15:43:28.605Z,74.09
2019-02-05T15:45:57.712Z,73.74
2019-02-05T15:48:26.798Z,73.50
2019-02-05T15:50:55.877Z,73.52
2019-02-05T15:53:25.297Z,73.73
2019-02-05T15:55:54.476Z,73.62
2019-02-05T15:58:23.587Z,73.96
2019-02-05T16:00:52.688Z,75.23
2019-02-05T16:03:21.785Z,73.85
2019-02-05T16:05:50.881Z,74.10
2019-02-05T16:08:20.360Z,76.38
2019-02-05T16:10:49.458Z,77.62
2019-02-05T16:13:18.570Z,77.24
2019-02-05T16:15:47.658Z,78.07
2019-02-05T16:18:16.761Z,78.71
2019-02-05T16:20:45.841Z,79.92
2019-02-05T16:23:15.030Z,80.46
2019-02-05T16:25:44.126Z,80.66
2019-02-05T16:28:13.235Z,81.02
2019-02-05T16:30:42.325Z,80.87
2019-02-05T16:33:11.434Z,81.33
2019-02-05T16:35:40.522Z,81.34
2019-02-05T16:38:09.627Z,81.49
2019-02-05T16:40:39.072Z,81.02
2019-02-05T16:43:08.185Z,81.47
2019-02-05T16:45:37.480Z,82.18
2019-02-05T16:48:06.585Z,82.39
2019-02-05T16:50:37.942Z,81.92
2019-02-05T16:53:08.149Z,82.55
2019-02-05T16:55:37.252Z,83.55
2019-02-05T16:58:06.701Z,84.09
2019-02-05T17:00:35.871Z,83.98
2019-02-05T17:03:05.502Z,84.25
2019-02-05T17:05:36.123Z,84.13
2019-02-05T17:08:05.742Z,83.37
2019-02-05T17:10:34.860Z,83.85
2019-02-05T17:13:04.183Z,85.26
2019-02-05T17:15:33.298Z,85.49
2019-02-05T17:18:02.388Z,86.08
2019-02-05T17:20:32.033Z,85.82
2019-02-05T17:23:01.196Z,85.72
2019-02-05T17:25:30.412Z,85.17
2019-02-05T17:28:00.122Z,85.05
2019-02-05T17:30:34.049Z,85.01
2019-02-05T17:33:03.232Z,84.60
2019-02-05T17:35:35.480Z,86.50
2019-02-05T17:38:05.546Z,85.95
2019-02-05T17:40:34.651Z,86.20
2019-02-05T17:43:03.740Z,86.46
2019-02-05T17:45:35.696Z,85.05
2019-02-05T17:48:08.015Z,84.43
2019-02-05T17:50:37.125Z,85.05
2019-02-05T17:53:06.251Z,83.03
2019-02-05T17:55:36.639Z,84.16
2019-02-05T17:58:06.370Z,84.16
2019-02-05T18:01:00.423Z,84.75
2019-02-05T18:03:29.533Z,85.25
2019-02-05T18:05:59.945Z,84.65
2019-02-05T18:08:29.031Z,84.73
2019-02-05T18:10:58.185Z,86.19
2019-02-05T18:13:27.286Z,87.32
2019-02-05T18:15:56.633Z,87.05
2019-02-05T18:18:25.739Z,86.79
2019-02-05T18:20:54.850Z,86.74
2019-02-05T18:23:23.942Z,87.13
2019-02-05T18:25:53.057Z,86.89
2019-02-05T18:28:22.143Z,86.95
2019-02-05T18:30:51.253Z,86.79
2019-02-05T18:33:20.345Z,87.38
2019-02-05T18:35:49.463Z,85.85
2019-02-05T18:38:18.553Z,85.10
2019-02-05T18:40:47.678Z,84.88
2019-02-05T18:43:16.776Z,85.23
2019-02-05T18:45:45.875Z,84.42
2019-02-05T18:48:14.983Z,83.68
2019-02-05T18:50:44.113Z,82.91
2019-02-05T18:53:13.235Z,82.12
2019-02-05T18:55:42.387Z,82.71
2019-02-05T18:58:11.502Z,83.41
2019-02-05T19:00:41.895Z,84.32
2019-02-05T19:03:15.398Z,85.21
2019-02-05T19:05:42.030Z,84.53
2019-02-05T19:08:11.277Z,85.53
2019-02-05T19:10:40.369Z,86.24
2019-02-05T19:13:09.482Z,86.39
2019-02-05T19:15:38.850Z,86.02
2019-02-05T19:18:08.737Z,85.88
2019-02-05T19:20:37.823Z,85.73
2019-02-05T19:23:08.412Z,85.54
2019-02-05T19:25:58.894Z,84.98
2019-02-05T19:28:30.159Z,84.07
2019-02-05T19:31:07.452Z,84.22
2019-02-05T19:33:36.728Z,84.80
2019-02-05T19:36:06.901Z,84.97
2019-02-05T19:38:36.409Z,85.08
2019-02-05T19:41:05.796Z,86.25
2019-02-05T19:43:35.151Z,84.63
2019-02-05T19:46:20.600Z,84.41
2019-02-05T19:48:54.157Z,85.01
2019-02-05T19:51:23.593Z,83.83
2019-02-05T19:53:53.997Z,83.24
2019-02-05T19:56:23.187Z,83.55
2019-02-05T19:58:52.293Z,83.27
2019-02-05T20:01:21.400Z,83.81
2019-02-05T20:03:50.549Z,83.33
2019-02-05T20:06:19.758Z,84.42
2019-02-05T20:08:48.956Z,85.50
2019-02-05T20:11:18.332Z,86.14
2019-02-05T20:13:47.449Z,85.64
2019-02-05T20:16:16.556Z,86.53
2019-02-05T20:18:46.549Z,87.51
2019-02-05T20:21:15.678Z,88.70
2019-02-05T20:23:44.803Z,90.14
2019-02-05T20:26:13.889Z,92.20
2019-02-05T20:28:43.001Z,93.29
2019-02-05T20:31:12.097Z,94.56
2019-02-05T20:33:49.761Z,95.54
2019-02-05T20:36:13.091Z,96.13
2019-02-05T20:38:42.904Z,96.74
2019-02-05T20:41:12.850Z,97.07
2019-02-05T20:43:42.554Z,97.42
2019-02-05T20:46:11.648Z,97.70
2019-02-05T20:48:41.913Z,97.78
2019-02-05T20:51:11.782Z,98.25
2019-02-05T20:53:41.552Z,98.40
2019-02-05T20:56:11.156Z,98.69
2019-02-05T20:58:41.007Z,98.88
2019-02-05T21:01:11.208Z,98.99
2019-02-05T21:03:40.591Z,99.15
2019-02-05T21:06:10.227Z,99.34
2019-02-05T21:08:39.814Z,99.67
2019-02-05T21:11:09.661Z,99.87
2019-02-05T21:13:39.018Z,99.96
2019-02-05T21:16:08.445Z,100.00
2019-02-05T21:18:38.587Z,100.00
2019-02-05T21:21:08.300Z,100.00
2019-02-05T21:23:38.243Z,100.00
2019-02-05T21:26:07.922Z,100.00
2019-02-05T21:28:37.525Z,100.00
2019-02-05T21:31:07.023Z,100.00
2019-02-05T21:33:36.127Z,100.00
2019-02-05T21:36:05.268Z,100.00
2019-02-05T21:38:34.371Z,100.00
2019-02-05T21:41:03.498Z,100.00
2019-02-05T21:43:32.589Z,100.00
2019-02-05T21:46:01.982Z,100.00
2019-02-05T21:48:31.089Z,100.00
2019-02-05T21:51:00.201Z,100.00
2019-02-05T21:53:29.327Z,100.00
2019-02-05T21:55:58.446Z,100.00
2019-02-05T21:58:27.545Z,100.00
2019-02-05T22:00:56.657Z,100.00
2019-02-05T22:03:25.940Z,100.00
2019-02-05T22:05:55.052Z,100.00
2019-02-05T22:08:24.184Z,100.00
2019-02-05T22:10:53.313Z,100.00
2019-02-05T22:13:22.365Z,100.00
2019-02-05T22:15:51.462Z,100.00
2019-02-05T22:18:20.576Z,100.00
2019-02-05T22:20:49.689Z,100.00
2019-02-05T22:23:19.068Z,100.00
2019-02-05T22:25:48.155Z,100.00
2019-02-05T22:28:20.115Z,100.00
2019-02-05T22:30:48.093Z,100.00
2019-02-05T22:33:17.213Z,100.00
2019-02-05T22:35:46.296Z,99.18
2019-02-05T22:38:15.401Z,97.50
2019-02-05T22:40:44.486Z,97.14
2019-02-05T22:43:13.871Z,96.69
2019-02-05T22:45:42.952Z,96.47
2019-02-05T22:48:12.054Z,96.29
2019-02-05T22:50:41.140Z,96.09
2019-02-05T22:53:10.287Z,96.08
2019-02-05T22:55:39.394Z,96.48
2019-02-05T22:58:09.097Z,96.58
2019-02-05T23:01:25.474Z,95.81
2019-02-05T23:04:03.603Z,95.45
2019-02-05T23:06:37.644Z,95.12
2019-02-05T23:09:18.872Z,94.53
2019-02-05T23:12:11.130Z,94.85
2019-02-05T23:14:40.223Z,94.72
2019-02-05T23:17:09.313Z,94.40
2019-02-05T23:19:38.434Z,94.82
2019-02-05T23:22:07.522Z,93.99
2019-02-05T23:24:36.630Z,94.15
2019-02-05T23:27:05.715Z,94.40
2019-02-05T23:29:34.836Z,94.70
2019-02-05T23:32:04.395Z,94.44
2019-02-05T23:34:33.498Z,94.71
2019-02-05T23:37:02.589Z,94.89
2019-02-05T23:39:31.704Z,95.39
2019-02-05T23:42:00.800Z,95.69
2019-02-05T23:44:29.919Z,96.25
2019-02-05T23:46:59.304Z,96.50
2019-02-05T23:49:28.389Z,97.06
2019-02-05T23:51:57.498Z,97.00
2019-02-05T23:54:26.644Z,96.78
2019-02-05T23:56:55.735Z,96.98
2019-02-05T23:59:24.855Z,96.60
